This is the latest recevied weather packets stored in our database for station/object WX2NJ-13. If no packets are shown the sender has not sent any weather packets the latest 10 day(s).
| Time | Temp. | Humidity | Pressure | Rain* | Wind** | Luminosity | Snow |
|---|---|---|---|---|---|---|---|
| 1777750885 | 15.56° C | 62% | 1011.1 hPa | 0 mm | 1.34 m/s, 86° | - | - |
| 1777750586 | 15.56° C | 62% | 1011 hPa | 0 mm | 1.34 m/s, 134° | - | - |
| 1777750285 | 16.11° C | 62% | 1011.1 hPa | 0 mm | 1.34 m/s, 73° | - | - |
| 1777749986 | 16.11° C | 61% | 1011.2 hPa | 0 mm | 1.34 m/s, 124° | - | - |
| 1777749687 | 16.11° C | 60% | 1011.2 hPa | 0 mm | 0 m/s | - | - |
| 1777749386 | 16.67° C | 60% | 1011.3 hPa | 0 mm | 0 m/s | - | - |
| 1777749087 | 16.67° C | 58% | 1011.5 hPa | 0 mm | 0.89 m/s, 125° | - | - |
| 1777748789 | 16.67° C | 56% | 1011.5 hPa | 0 mm | 0.89 m/s, 113° | - | - |
| 1777748487 | 16.67° C | 56% | 1011.6 hPa | 0 mm | 0 m/s | - | - |
| 1777748189 | 16.67° C | 53% | 1011.6 hPa | 0 mm | 0 m/s | - | - |
| 1777747890 | 16.67° C | 55% | 1011.8 hPa | 0 mm | 0 m/s | - | - |
| 1777747589 | 16.67° C | 56% | 1011.7 hPa | 0 mm | 0 m/s | - | - |
| 1777747290 | 16.67° C | 57% | 1011.7 hPa | 0 mm | 0 m/s | - | - |
| 1777746992 | 16.11° C | 57% | 1011.8 hPa | 0 mm | 0 m/s | - | - |
| 1777746690 | 16.11° C | 57% | 1011.9 hPa | 0 mm | 0 m/s | - | - |
| 1777746392 | 16.11° C | 58% | 1011.9 hPa | 0 mm | 0.89 m/s, 288° | - | - |
| 1777746093 | 16.11° C | 60% | 1011.9 hPa | 0 mm | 0.89 m/s, 315° | - | - |
| 1777745792 | 15.56° C | 60% | 1011.8 hPa | 0 mm | 0.89 m/s, 295° | - | - |
| 1777745493 | 15.56° C | 62% | 1011.8 hPa | 0 mm | 0.45 m/s, 24° | - | - |
| 1777745195 | 15° C | 64% | 1011.8 hPa | 0 mm | 0 m/s | - | - |
| 1777744893 | 15° C | 65% | 1011.9 hPa | 0 mm | 0.45 m/s, 80° | - | - |
| 1777744595 | 15° C | 66% | 1011.9 hPa | 0 mm | 0.45 m/s, 283° | - | - |
| 1777744296 | 15° C | 67% | 1011.9 hPa | 0 mm | 0 m/s | - | - |
| 1777743995 | 15° C | 67% | 1012 hPa | 0 mm | 0 m/s | - | - |
| 1777743696 | 15° C | 67% | 1012 hPa | 0 mm | 0 m/s | - | - |
* Rain latest hour (hover to see other rain measurements)
** Current wind speed in m/s (hover to see current wind gust speed)